sensor_id;sensor_type;location;lat;lon;timestamp;temperature;humidity
23715;DHT22;12036;50.858;4.472;2023-04-30T00:00:28;8.60;99.90
23715;DHT22;12036;50.858;4.472;2023-04-30T00:02:54;8.70;99.90
23715;DHT22;12036;50.858;4.472;2023-04-30T00:05:20;8.70;99.90
23715;DHT22;12036;50.858;4.472;2023-04-30T00:07:45;8.70;99.90
23715;DHT22;12036;50.858;4.472;2023-04-30T00:10:11;8.80;99.90
23715;DHT22;12036;50.858;4.472;2023-04-30T00:12:37;8.80;99.90
23715;DHT22;12036;50.858;4.472;2023-04-30T00:15:03;8.80;99.90
23715;DHT22;12036;50.858;4.472;2023-04-30T00:17:28;8.80;99.90
23715;DHT22;12036;50.858;4.472;2023-04-30T00:19:54;8.80;99.90
23715;DHT22;12036;50.858;4.472;2023-04-30T00:22:20;8.80;99.90
23715;DHT22;12036;50.858;4.472;2023-04-30T00:24:46;8.80;99.90
23715;DHT22;12036;50.858;4.472;2023-04-30T00:27:11;8.70;99.90
23715;DHT22;12036;50.858;4.472;2023-04-30T00:29:37;8.70;99.90
23715;DHT22;12036;50.858;4.472;2023-04-30T00:32:03;8.60;99.90
23715;DHT22;12036;50.858;4.472;2023-04-30T00:34:28;8.50;99.90
23715;DHT22;12036;50.858;4.472;2023-04-30T00:36:54;8.50;99.90
23715;DHT22;12036;50.858;4.472;2023-04-30T00:39:20;8.40;99.90
23715;DHT22;12036;50.858;4.472;2023-04-30T00:41:46;8.40;99.90
23715;DHT22;12036;50.858;4.472;2023-04-30T00:44:11;8.40;99.90
23715;DHT22;12036;50.858;4.472;2023-04-30T00:46:37;8.30;99.90
23715;DHT22;12036;50.858;4.472;2023-04-30T00:49:02;8.30;99.90
23715;DHT22;12036;50.858;4.472;2023-04-30T00:51:30;8.20;99.90
23715;DHT22;12036;50.858;4.472;2023-04-30T00:53:57;8.20;99.90
23715;DHT22;12036;50.858;4.472;2023-04-30T00:56:24;8.10;99.90
23715;DHT22;12036;50.858;4.472;2023-04-30T00:58:51;8.10;99.90
23715;DHT22;12036;50.858;4.472;2023-04-30T01:01:25;8.00;99.90
23715;DHT22;12036;50.858;4.472;2023-04-30T01:03:51;7.90;99.90
23715;DHT22;12036;50.858;4.472;2023-04-30T01:06:16;7.90;99.90
23715;DHT22;12036;50.858;4.472;2023-04-30T01:08:42;7.90;99.90
23715;DHT22;12036;50.858;4.472;2023-04-30T01:14:12;7.80;99.90
23715;DHT22;12036;50.858;4.472;2023-04-30T01:19:41;7.70;99.90
23715;DHT22;12036;50.858;4.472;2023-04-30T01:22:11;7.60;99.90
23715;DHT22;12036;50.858;4.472;2023-04-30T01:24:51;7.60;99.90
23715;DHT22;12036;50.858;4.472;2023-04-30T01:27:31;7.60;99.90
23715;DHT22;12036;50.858;4.472;2023-04-30T01:30:04;7.50;99.90
23715;DHT22;12036;50.858;4.472;2023-04-30T01:32:30;7.40;99.90
23715;DHT22;12036;50.858;4.472;2023-04-30T01:34:55;7.40;99.90
23715;DHT22;12036;50.858;4.472;2023-04-30T01:38:08;7.30;99.90
23715;DHT22;12036;50.858;4.472;2023-04-30T01:48:30;7.20;99.90
23715;DHT22;12036;50.858;4.472;2023-04-30T01:53:40;7.10;99.90
23715;DHT22;12036;50.858;4.472;2023-04-30T01:56:11;7.00;99.90
23715;DHT22;12036;50.858;4.472;2023-04-30T01:58:37;7.00;99.90
23715;DHT22;12036;50.858;4.472;2023-04-30T02:01:04;7.00;99.90
23715;DHT22;12036;50.858;4.472;2023-04-30T02:03:31;7.00;99.90
23715;DHT22;12036;50.858;4.472;2023-04-30T02:05:57;7.00;99.90
23715;DHT22;12036;50.858;4.472;2023-04-30T02:08:23;7.00;99.90
23715;DHT22;12036;50.858;4.472;2023-04-30T02:10:49;6.90;99.90
23715;DHT22;12036;50.858;4.472;2023-04-30T02:13:15;6.90;99.90
23715;DHT22;12036;50.858;4.472;2023-04-30T02:15:40;6.90;99.90
23715;DHT22;12036;50.858;4.472;2023-04-30T02:18:06;6.90;99.90
23715;DHT22;12036;50.858;4.472;2023-04-30T02:20:31;6.80;99.90
23715;DHT22;12036;50.858;4.472;2023-04-30T02:22:57;6.80;99.90
23715;DHT22;12036;50.858;4.472;2023-04-30T02:25:23;6.70;99.90
23715;DHT22;12036;50.858;4.472;2023-04-30T02:27:48;6.70;99.90
23715;DHT22;12036;50.858;4.472;2023-04-30T02:30:15;6.70;99.90
23715;DHT22;12036;50.858;4.472;2023-04-30T02:32:41;6.70;99.90
23715;DHT22;12036;50.858;4.472;2023-04-30T02:35:07;6.70;99.90
23715;DHT22;12036;50.858;4.472;2023-04-30T02:37:33;6.60;99.90
23715;DHT22;12036;50.858;4.472;2023-04-30T02:39:58;6.60;99.90
23715;DHT22;12036;50.858;4.472;2023-04-30T02:42:24;6.60;99.90
23715;DHT22;12036;50.858;4.472;2023-04-30T02:44:50;6.60;99.90
23715;DHT22;12036;50.858;4.472;2023-04-30T02:47:15;6.60;99.90
23715;DHT22;12036;50.858;4.472;2023-04-30T02:49:42;6.60;99.90
23715;DHT22;12036;50.858;4.472;2023-04-30T02:52:08;6.50;99.90
23715;DHT22;12036;50.858;4.472;2023-04-30T02:54:34;6.40;99.90
23715;DHT22;12036;50.858;4.472;2023-04-30T02:57:00;6.50;99.90
23715;DHT22;12036;50.858;4.472;2023-04-30T02:59:25;6.40;99.90
23715;DHT22;12036;50.858;4.472;2023-04-30T03:01:51;6.40;99.90
23715;DHT22;12036;50.858;4.472;2023-04-30T03:04:17;6.40;99.90
23715;DHT22;12036;50.858;4.472;2023-04-30T03:06:42;6.40;99.90
23715;DHT22;12036;50.858;4.472;2023-04-30T03:09:08;6.40;99.90
23715;DHT22;12036;50.858;4.472;2023-04-30T03:11:34;6.30;99.90
23715;DHT22;12036;50.858;4.472;2023-04-30T03:14:02;6.30;99.90
23715;DHT22;12036;50.858;4.472;2023-04-30T03:16:29;6.20;99.90
23715;DHT22;12036;50.858;4.472;2023-04-30T03:18:55;6.20;99.90
23715;DHT22;12036;50.858;4.472;2023-04-30T03:21:21;6.20;99.90
23715;DHT22;12036;50.858;4.472;2023-04-30T03:23:47;6.20;99.90
23715;DHT22;12036;50.858;4.472;2023-04-30T03:26:13;6.20;99.90
23715;DHT22;12036;50.858;4.472;2023-04-30T03:28:38;6.10;99.90
23715;DHT22;12036;50.858;4.472;2023-04-30T03:31:04;6.10;99.90
23715;DHT22;12036;50.858;4.472;2023-04-30T03:33:30;6.10;99.90
23715;DHT22;12036;50.858;4.472;2023-04-30T03:35:57;6.10;99.90
23715;DHT22;12036;50.858;4.472;2023-04-30T03:38:22;6.10;99.90
23715;DHT22;12036;50.858;4.472;2023-04-30T03:40:48;6.00;99.90
23715;DHT22;12036;50.858;4.472;2023-04-30T03:43:14;6.00;99.90
23715;DHT22;12036;50.858;4.472;2023-04-30T03:45:40;6.00;99.90
23715;DHT22;12036;50.858;4.472;2023-04-30T03:48:05;6.00;99.90
23715;DHT22;12036;50.858;4.472;2023-04-30T03:50:31;6.00;99.90
23715;DHT22;12036;50.858;4.472;2023-04-30T03:52:56;6.00;99.90
23715;DHT22;12036;50.858;4.472;2023-04-30T03:55:22;6.00;99.90
23715;DHT22;12036;50.858;4.472;2023-04-30T03:57:48;5.90;99.90
23715;DHT22;12036;50.858;4.472;2023-04-30T04:00:14;5.90;99.90
23715;DHT22;12036;50.858;4.472;2023-04-30T04:02:40;5.90;99.90
23715;DHT22;12036;50.858;4.472;2023-04-30T04:05:05;5.80;99.90
23715;DHT22;12036;50.858;4.472;2023-04-30T04:07:32;5.90;99.90
23715;DHT22;12036;50.858;4.472;2023-04-30T04:09:58;5.80;99.90
23715;DHT22;12036;50.858;4.472;2023-04-30T04:12:23;5.80;99.90
23715;DHT22;12036;50.858;4.472;2023-04-30T04:14:49;5.80;99.90
23715;DHT22;12036;50.858;4.472;2023-04-30T04:17:15;5.90;99.90
23715;DHT22;12036;50.858;4.472;2023-04-30T04:19:40;5.80;99.90
23715;DHT22;12036;50.858;4.472;2023-04-30T04:22:06;5.80;99.90
23715;DHT22;12036;50.858;4.472;2023-04-30T04:24:32;5.80;99.90
23715;DHT22;12036;50.858;4.472;2023-04-30T04:26:58;5.80;99.90
23715;DHT22;12036;50.858;4.472;2023-04-30T04:29:24;5.80;99.90
23715;DHT22;12036;50.858;4.472;2023-04-30T04:31:50;5.80;99.90
23715;DHT22;12036;50.858;4.472;2023-04-30T04:34:16;5.80;99.90
23715;DHT22;12036;50.858;4.472;2023-04-30T04:36:42;5.80;99.90
23715;DHT22;12036;50.858;4.472;2023-04-30T04:39:07;5.80;99.90
23715;DHT22;12036;50.858;4.472;2023-04-30T04:41:33;5.90;99.90
23715;DHT22;12036;50.858;4.472;2023-04-30T04:44:02;5.90;99.90
23715;DHT22;12036;50.858;4.472;2023-04-30T04:46:29;5.90;99.90
23715;DHT22;12036;50.858;4.472;2023-04-30T04:48:56;5.90;99.90
23715;DHT22;12036;50.858;4.472;2023-04-30T04:51:22;6.00;99.90
23715;DHT22;12036;50.858;4.472;2023-04-30T04:53:48;6.10;99.90
23715;DHT22;12036;50.858;4.472;2023-04-30T04:56:14;6.10;99.90
23715;DHT22;12036;50.858;4.472;2023-04-30T04:58:40;6.20;99.90
23715;DHT22;12036;50.858;4.472;2023-04-30T05:01:06;6.30;99.90
23715;DHT22;12036;50.858;4.472;2023-04-30T05:03:33;6.30;99.90
23715;DHT22;12036;50.858;4.472;2023-04-30T05:06:04;6.50;99.90
23715;DHT22;12036;50.858;4.472;2023-04-30T05:08:30;6.50;99.90
23715;DHT22;12036;50.858;4.472;2023-04-30T05:10:55;6.60;99.90
23715;DHT22;12036;50.858;4.472;2023-04-30T05:13:21;6.80;99.90
23715;DHT22;12036;50.858;4.472;2023-04-30T05:15:49;6.90;99.90
23715;DHT22;12036;50.858;4.472;2023-04-30T05:18:15;7.00;99.90
23715;DHT22;12036;50.858;4.472;2023-04-30T05:20:41;7.10;99.90
23715;DHT22;12036;50.858;4.472;2023-04-30T05:23:06;7.30;99.90
23715;DHT22;12036;50.858;4.472;2023-04-30T05:25:32;7.40;99.90
23715;DHT22;12036;50.858;4.472;2023-04-30T05:27:58;7.60;99.90
23715;DHT22;12036;50.858;4.472;2023-04-30T05:30:23;8.00;99.90
23715;DHT22;12036;50.858;4.472;2023-04-30T05:32:49;8.50;99.90
23715;DHT22;12036;50.858;4.472;2023-04-30T05:35:17;9.70;99.90
23715;DHT22;12036;50.858;4.472;2023-04-30T05:37:43;11.20;99.90
23715;DHT22;12036;50.858;4.472;2023-04-30T05:40:09;12.70;99.90
23715;DHT22;12036;50.858;4.472;2023-04-30T05:42:34;14.20;99.90
23715;DHT22;12036;50.858;4.472;2023-04-30T05:45:02;15.30;99.90
23715;DHT22;12036;50.858;4.472;2023-04-30T05:47:33;16.20;99.90
23715;DHT22;12036;50.858;4.472;2023-04-30T05:49:59;16.70;99.90
23715;DHT22;12036;50.858;4.472;2023-04-30T05:52:24;17.40;99.00
23715;DHT22;12036;50.858;4.472;2023-04-30T05:54:50;18.00;97.60
23715;DHT22;12036;50.858;4.472;2023-04-30T05:57:16;18.10;95.30
23715;DHT22;12036;50.858;4.472;2023-04-30T05:59:41;18.10;95.20
23715;DHT22;12036;50.858;4.472;2023-04-30T06:02:07;18.30;94.70
23715;DHT22;12036;50.858;4.472;2023-04-30T06:04:33;18.80;93.30
23715;DHT22;12036;50.858;4.472;2023-04-30T06:06:59;19.30;90.90
23715;DHT22;12036;50.858;4.472;2023-04-30T06:09:25;19.80;88.90
23715;DHT22;12036;50.858;4.472;2023-04-30T06:11:50;19.90;87.00
23715;DHT22;12036;50.858;4.472;2023-04-30T06:14:19;19.80;86.20
23715;DHT22;12036;50.858;4.472;2023-04-30T06:16:47;19.90;86.20
23715;DHT22;12036;50.858;4.472;2023-04-30T06:19:13;20.10;84.20
23715;DHT22;12036;50.858;4.472;2023-04-30T06:21:39;20.30;83.60
23715;DHT22;12036;50.858;4.472;2023-04-30T06:24:05;20.70;81.20
23715;DHT22;12036;50.858;4.472;2023-04-30T06:26:31;20.90;77.80
23715;DHT22;12036;50.858;4.472;2023-04-30T06:28:57;21.10;78.20
23715;DHT22;12036;50.858;4.472;2023-04-30T06:31:23;21.40;76.50
23715;DHT22;12036;50.858;4.472;2023-04-30T06:33:48;21.20;74.70
23715;DHT22;12036;50.858;4.472;2023-04-30T06:36:15;20.40;77.30
23715;DHT22;12036;50.858;4.472;2023-04-30T06:38:40;19.70;80.60
23715;DHT22;12036;50.858;4.472;2023-04-30T06:41:07;19.30;82.40
23715;DHT22;12036;50.858;4.472;2023-04-30T06:43:33;18.90;83.50
23715;DHT22;12036;50.858;4.472;2023-04-30T06:45:58;18.60;85.20
23715;DHT22;12036;50.858;4.472;2023-04-30T06:48:24;18.40;86.50
23715;DHT22;12036;50.858;4.472;2023-04-30T06:50:50;18.60;85.90
23715;DHT22;12036;50.858;4.472;2023-04-30T06:53:15;19.00;84.80
23715;DHT22;12036;50.858;4.472;2023-04-30T06:55:41;19.50;83.20
23715;DHT22;12036;50.858;4.472;2023-04-30T06:58:07;19.70;82.50
23715;DHT22;12036;50.858;4.472;2023-04-30T07:00:33;20.00;81.20
23715;DHT22;12036;50.858;4.472;2023-04-30T07:02:59;19.90;79.80
23715;DHT22;12036;50.858;4.472;2023-04-30T07:05:27;19.50;82.40
23715;DHT22;12036;50.858;4.472;2023-04-30T07:07:53;19.40;83.90
23715;DHT22;12036;50.858;4.472;2023-04-30T07:10:19;19.30;84.80
23715;DHT22;12036;50.858;4.472;2023-04-30T07:12:45;19.30;86.10
23715;DHT22;12036;50.858;4.472;2023-04-30T07:15:10;19.10;85.40
23715;DHT22;12036;50.858;4.472;2023-04-30T07:17:36;19.00;84.30
23715;DHT22;12036;50.858;4.472;2023-04-30T07:20:06;18.90;85.40
23715;DHT22;12036;50.858;4.472;2023-04-30T07:22:32;19.30;84.20
23715;DHT22;12036;50.858;4.472;2023-04-30T07:24:57;19.70;84.50
23715;DHT22;12036;50.858;4.472;2023-04-30T07:27:23;20.10;82.30
23715;DHT22;12036;50.858;4.472;2023-04-30T07:29:49;20.00;81.20
23715;DHT22;12036;50.858;4.472;2023-04-30T07:32:15;19.60;82.20
23715;DHT22;12036;50.858;4.472;2023-04-30T07:34:41;19.40;86.20
23715;DHT22;12036;50.858;4.472;2023-04-30T07:37:08;19.20;84.90
23715;DHT22;12036;50.858;4.472;2023-04-30T07:39:34;18.80;87.30
23715;DHT22;12036;50.858;4.472;2023-04-30T07:42:01;18.40;86.70
23715;DHT22;12036;50.858;4.472;2023-04-30T07:44:27;18.10;89.40
23715;DHT22;12036;50.858;4.472;2023-04-30T07:46:53;17.90;90.40
23715;DHT22;12036;50.858;4.472;2023-04-30T07:49:18;17.70;91.40
23715;DHT22;12036;50.858;4.472;2023-04-30T07:51:44;17.50;92.10
23715;DHT22;12036;50.858;4.472;2023-04-30T07:54:10;17.40;93.00
23715;DHT22;12036;50.858;4.472;2023-04-30T07:56:36;17.40;93.00
23715;DHT22;12036;50.858;4.472;2023-04-30T07:59:02;17.70;93.40
23715;DHT22;12036;50.858;4.472;2023-04-30T08:01:27;17.90;93.10
23715;DHT22;12036;50.858;4.472;2023-04-30T08:03:53;17.90;92.90
23715;DHT22;12036;50.858;4.472;2023-04-30T08:06:19;17.90;92.50
23715;DHT22;12036;50.858;4.472;2023-04-30T08:08:44;17.80;93.00
23715;DHT22;12036;50.858;4.472;2023-04-30T08:11:10;17.80;94.00
23715;DHT22;12036;50.858;4.472;2023-04-30T08:13:36;17.60;93.80
23715;DHT22;12036;50.858;4.472;2023-04-30T08:16:02;17.70;94.20
23715;DHT22;12036;50.858;4.472;2023-04-30T08:18:28;17.60;94.50
23715;DHT22;12036;50.858;4.472;2023-04-30T08:20:54;17.70;94.80
23715;DHT22;12036;50.858;4.472;2023-04-30T08:23:20;17.90;94.80
23715;DHT22;12036;50.858;4.472;2023-04-30T08:25:45;18.20;93.80
23715;DHT22;12036;50.858;4.472;2023-04-30T08:28:11;18.30;93.50
23715;DHT22;12036;50.858;4.472;2023-04-30T08:30:38;18.40;92.50
23715;DHT22;12036;50.858;4.472;2023-04-30T08:33:03;18.40;92.00
23715;DHT22;12036;50.858;4.472;2023-04-30T08:35:29;18.30;93.50
23715;DHT22;12036;50.858;4.472;2023-04-30T08:37:54;18.20;93.60
23715;DHT22;12036;50.858;4.472;2023-04-30T08:40:20;18.20;92.20
23715;DHT22;12036;50.858;4.472;2023-04-30T08:42:57;18.30;92.60
23715;DHT22;12036;50.858;4.472;2023-04-30T08:45:25;18.10;92.80
23715;DHT22;12036;50.858;4.472;2023-04-30T08:47:51;18.10;93.90
23715;DHT22;12036;50.858;4.472;2023-04-30T08:50:16;18.40;93.10
23715;DHT22;12036;50.858;4.472;2023-04-30T08:52:42;19.00;90.80
23715;DHT22;12036;50.858;4.472;2023-04-30T08:55:08;19.70;90.00
23715;DHT22;12036;50.858;4.472;2023-04-30T08:57:36;20.50;83.80
23715;DHT22;12036;50.858;4.472;2023-04-30T09:00:03;21.00;79.50
23715;DHT22;12036;50.858;4.472;2023-04-30T09:02:31;21.30;76.90
23715;DHT22;12036;50.858;4.472;2023-04-30T09:04:57;20.80;76.50
23715;DHT22;12036;50.858;4.472;2023-04-30T09:07:23;20.60;76.60
23715;DHT22;12036;50.858;4.472;2023-04-30T09:09:52;20.50;78.70
23715;DHT22;12036;50.858;4.472;2023-04-30T09:12:18;20.40;77.50
23715;DHT22;12036;50.858;4.472;2023-04-30T09:15:02;20.10;78.40
23715;DHT22;12036;50.858;4.472;2023-04-30T09:17:29;19.80;80.20
23715;DHT22;12036;50.858;4.472;2023-04-30T09:20:05;20.00;80.90
23715;DHT22;12036;50.858;4.472;2023-04-30T09:22:31;20.20;80.40
23715;DHT22;12036;50.858;4.472;2023-04-30T09:24:57;20.60;78.90
23715;DHT22;12036;50.858;4.472;2023-04-30T09:27:23;21.20;77.60
23715;DHT22;12036;50.858;4.472;2023-04-30T09:29:48;22.00;74.10
23715;DHT22;12036;50.858;4.472;2023-04-30T09:32:14;22.90;68.90
23715;DHT22;12036;50.858;4.472;2023-04-30T09:34:40;23.30;64.80
23715;DHT22;12036;50.858;4.472;2023-04-30T09:37:08;23.40;64.10
23715;DHT22;12036;50.858;4.472;2023-04-30T09:39:45;23.70;63.00
23715;DHT22;12036;50.858;4.472;2023-04-30T09:42:12;24.60;61.70
23715;DHT22;12036;50.858;4.472;2023-04-30T09:44:39;25.70;57.90
23715;DHT22;12036;50.858;4.472;2023-04-30T09:47:10;26.70;54.70
23715;DHT22;12036;50.858;4.472;2023-04-30T09:49:47;26.90;53.30
23715;DHT22;12036;50.858;4.472;2023-04-30T09:52:14;26.90;52.70
23715;DHT22;12036;50.858;4.472;2023-04-30T09:54:43;26.70;53.20
23715;DHT22;12036;50.858;4.472;2023-04-30T09:57:10;27.10;52.00
23715;DHT22;12036;50.858;4.472;2023-04-30T09:59:36;27.40;50.60
23715;DHT22;12036;50.858;4.472;2023-04-30T10:02:07;27.60;48.90
23715;DHT22;12036;50.858;4.472;2023-04-30T10:04:34;27.80;48.30
23715;DHT22;12036;50.858;4.472;2023-04-30T10:07:21;27.70;48.80
23715;DHT22;12036;50.858;4.472;2023-04-30T10:15:16;26.30;49.30
23715;DHT22;12036;50.858;4.472;2023-04-30T10:17:49;26.50;48.60
23715;DHT22;12036;50.858;4.472;2023-04-30T10:20:16;26.50;48.80
23715;DHT22;12036;50.858;4.472;2023-04-30T10:22:43;26.20;49.00
23715;DHT22;12036;50.858;4.472;2023-04-30T10:25:10;25.70;50.40
23715;DHT22;12036;50.858;4.472;2023-04-30T10:27:38;25.70;49.90
23715;DHT22;12036;50.858;4.472;2023-04-30T10:30:05;25.80;49.60
23715;DHT22;12036;50.858;4.472;2023-04-30T10:32:54;26.20;48.70
23715;DHT22;12036;50.858;4.472;2023-04-30T10:35:31;26.80;47.90
23715;DHT22;12036;50.858;4.472;2023-04-30T10:38:14;27.10;47.10
23715;DHT22;12036;50.858;4.472;2023-04-30T10:40:45;27.10;46.90
23715;DHT22;12036;50.858;4.472;2023-04-30T10:43:12;27.00;47.50
23715;DHT22;12036;50.858;4.472;2023-04-30T10:45:41;27.30;46.00
23715;DHT22;12036;50.858;4.472;2023-04-30T10:48:08;27.10;45.90
23715;DHT22;12036;50.858;4.472;2023-04-30T10:50:44;27.20;45.00
23715;DHT22;12036;50.858;4.472;2023-04-30T10:53:17;26.70;46.40
23715;DHT22;12036;50.858;4.472;2023-04-30T10:56:02;26.60;46.20
23715;DHT22;12036;50.858;4.472;2023-04-30T10:58:34;26.70;47.10
23715;DHT22;12036;50.858;4.472;2023-04-30T11:01:15;26.50;46.90
23715;DHT22;12036;50.858;4.472;2023-04-30T11:04:07;26.10;47.90
23715;DHT22;12036;50.858;4.472;2023-04-30T11:09:18;26.20;48.00
23715;DHT22;12036;50.858;4.472;2023-04-30T11:11:44;26.30;47.10
23715;DHT22;12036;50.858;4.472;2023-04-30T11:14:12;26.40;47.30
23715;DHT22;12036;50.858;4.472;2023-04-30T11:16:37;26.80;46.80
23715;DHT22;12036;50.858;4.472;2023-04-30T11:19:11;27.10;46.90
23715;DHT22;12036;50.858;4.472;2023-04-30T11:22:26;27.40;46.30
23715;DHT22;12036;50.858;4.472;2023-04-30T11:27:27;27.50;44.50
23715;DHT22;12036;50.858;4.472;2023-04-30T11:29:54;27.50;44.60
23715;DHT22;12036;50.858;4.472;2023-04-30T11:32:23;27.00;44.60
23715;DHT22;12036;50.858;4.472;2023-04-30T11:34:49;26.80;45.40
23715;DHT22;12036;50.858;4.472;2023-04-30T11:37:20;26.90;44.40
23715;DHT22;12036;50.858;4.472;2023-04-30T11:39:46;26.30;46.10
23715;DHT22;12036;50.858;4.472;2023-04-30T11:42:19;26.40;45.10
23715;DHT22;12036;50.858;4.472;2023-04-30T11:44:45;25.70;46.50
23715;DHT22;12036;50.858;4.472;2023-04-30T11:47:15;25.40;47.20
23715;DHT22;12036;50.858;4.472;2023-04-30T11:49:43;25.00;47.00
23715;DHT22;12036;50.858;4.472;2023-04-30T11:52:12;24.50;47.60
23715;DHT22;12036;50.858;4.472;2023-04-30T11:54:38;24.50;46.30
23715;DHT22;12036;50.858;4.472;2023-04-30T11:57:04;24.20;46.70
23715;DHT22;12036;50.858;4.472;2023-04-30T11:59:31;23.60;47.20
23715;DHT22;12036;50.858;4.472;2023-04-30T12:02:05;23.00;47.80
23715;DHT22;12036;50.858;4.472;2023-04-30T12:04:31;22.40;48.50
23715;DHT22;12036;50.858;4.472;2023-04-30T12:06:59;22.20;49.60
23715;DHT22;12036;50.858;4.472;2023-04-30T12:09:24;22.20;49.80
23715;DHT22;12036;50.858;4.472;2023-04-30T12:11:50;22.20;48.90
23715;DHT22;12036;50.858;4.472;2023-04-30T12:14:16;22.20;50.30
23715;DHT22;12036;50.858;4.472;2023-04-30T12:16:46;22.20;50.20
23715;DHT22;12036;50.858;4.472;2023-04-30T12:19:16;22.30;49.00
23715;DHT22;12036;50.858;4.472;2023-04-30T12:21:43;22.10;49.20
23715;DHT22;12036;50.858;4.472;2023-04-30T12:24:11;22.20;49.90
23715;DHT22;12036;50.858;4.472;2023-04-30T12:26:37;22.30;49.50
23715;DHT22;12036;50.858;4.472;2023-04-30T12:29:08;22.40;49.70
23715;DHT22;12036;50.858;4.472;2023-04-30T12:31:38;22.50;49.80
23715;DHT22;12036;50.858;4.472;2023-04-30T12:34:06;22.40;51.20
23715;DHT22;12036;50.858;4.472;2023-04-30T12:36:33;22.60;50.40
23715;DHT22;12036;50.858;4.472;2023-04-30T12:39:21;22.70;50.30
23715;DHT22;12036;50.858;4.472;2023-04-30T12:41:48;22.40;50.70
23715;DHT22;12036;50.858;4.472;2023-04-30T12:46:44;22.30;50.80
23715;DHT22;12036;50.858;4.472;2023-04-30T12:49:10;22.30;50.60
23715;DHT22;12036;50.858;4.472;2023-04-30T12:51:36;22.30;51.30
23715;DHT22;12036;50.858;4.472;2023-04-30T12:54:05;22.40;49.70
23715;DHT22;12036;50.858;4.472;2023-04-30T12:56:31;22.40;48.90
23715;DHT22;12036;50.858;4.472;2023-04-30T12:58:57;22.50;49.50
23715;DHT22;12036;50.858;4.472;2023-04-30T13:01:22;22.40;49.80
23715;DHT22;12036;50.858;4.472;2023-04-30T13:03:50;22.20;50.30
23715;DHT22;12036;50.858;4.472;2023-04-30T13:06:16;22.00;51.20
23715;DHT22;12036;50.858;4.472;2023-04-30T13:08:43;21.80;50.40
23715;DHT22;12036;50.858;4.472;2023-04-30T13:11:09;21.70;49.80
23715;DHT22;12036;50.858;4.472;2023-04-30T13:13:35;21.70;49.50
23715;DHT22;12036;50.858;4.472;2023-04-30T13:16:01;21.80;49.90
23715;DHT22;12036;50.858;4.472;2023-04-30T13:18:27;21.80;50.20
23715;DHT22;12036;50.858;4.472;2023-04-30T13:20:52;21.90;50.80
23715;DHT22;12036;50.858;4.472;2023-04-30T13:23:18;22.10;49.60
23715;DHT22;12036;50.858;4.472;2023-04-30T13:25:44;22.10;50.40
23715;DHT22;12036;50.858;4.472;2023-04-30T13:28:10;22.20;49.40
23715;DHT22;12036;50.858;4.472;2023-04-30T13:30:36;22.20;49.80
23715;DHT22;12036;50.858;4.472;2023-04-30T13:33:02;22.20;50.00
23715;DHT22;12036;50.858;4.472;2023-04-30T13:35:28;22.20;48.80
23715;DHT22;12036;50.858;4.472;2023-04-30T13:37:54;22.20;49.10
23715;DHT22;12036;50.858;4.472;2023-04-30T13:40:20;22.10;48.90
23715;DHT22;12036;50.858;4.472;2023-04-30T13:42:47;22.00;49.30
23715;DHT22;12036;50.858;4.472;2023-04-30T13:45:13;22.00;49.10
23715;DHT22;12036;50.858;4.472;2023-04-30T13:47:39;21.80;50.80
23715;DHT22;12036;50.858;4.472;2023-04-30T13:50:05;21.80;49.40
23715;DHT22;12036;50.858;4.472;2023-04-30T13:52:32;21.70;51.30
23715;DHT22;12036;50.858;4.472;2023-04-30T13:54:57;21.80;49.90
23715;DHT22;12036;50.858;4.472;2023-04-30T13:57:23;21.80;50.20
23715;DHT22;12036;50.858;4.472;2023-04-30T13:59:49;22.00;50.80
23715;DHT22;12036;50.858;4.472;2023-04-30T14:02:15;22.00;50.90
23715;DHT22;12036;50.858;4.472;2023-04-30T14:04:41;22.10;49.40
23715;DHT22;12036;50.858;4.472;2023-04-30T14:07:07;22.10;50.20
23715;DHT22;12036;50.858;4.472;2023-04-30T14:09:33;22.10;49.90
23715;DHT22;12036;50.858;4.472;2023-04-30T14:11:58;22.00;49.50
23715;DHT22;12036;50.858;4.472;2023-04-30T14:14:25;21.90;48.90
23715;DHT22;12036;50.858;4.472;2023-04-30T14:16:51;21.80;48.20
23715;DHT22;12036;50.858;4.472;2023-04-30T14:19:17;21.70;48.90
23715;DHT22;12036;50.858;4.472;2023-04-30T14:21:43;21.70;49.50
23715;DHT22;12036;50.858;4.472;2023-04-30T14:24:09;21.70;49.40
23715;DHT22;12036;50.858;4.472;2023-04-30T14:26:37;21.70;49.60
23715;DHT22;12036;50.858;4.472;2023-04-30T14:29:03;21.70;49.30
23715;DHT22;12036;50.858;4.472;2023-04-30T14:31:29;21.90;49.40
23715;DHT22;12036;50.858;4.472;2023-04-30T14:33:54;21.90;49.90
23715;DHT22;12036;50.858;4.472;2023-04-30T14:36:20;21.90;49.40
23715;DHT22;12036;50.858;4.472;2023-04-30T14:38:46;21.70;49.50
23715;DHT22;12036;50.858;4.472;2023-04-30T14:41:11;21.50;50.00
23715;DHT22;12036;50.858;4.472;2023-04-30T14:43:37;21.40;50.30
23715;DHT22;12036;50.858;4.472;2023-04-30T14:46:03;21.30;50.70
23715;DHT22;12036;50.858;4.472;2023-04-30T14:48:29;21.20;50.70
23715;DHT22;12036;50.858;4.472;2023-04-30T14:50:54;20.90;51.10
23715;DHT22;12036;50.858;4.472;2023-04-30T14:53:20;21.00;51.60
23715;DHT22;12036;50.858;4.472;2023-04-30T14:55:46;21.00;51.10
23715;DHT22;12036;50.858;4.472;2023-04-30T14:58:11;21.00;50.10
23715;DHT22;12036;50.858;4.472;2023-04-30T15:00:37;20.90;50.90
23715;DHT22;12036;50.858;4.472;2023-04-30T15:03:02;21.00;51.00
23715;DHT22;12036;50.858;4.472;2023-04-30T15:05:28;21.00;50.90
23715;DHT22;12036;50.858;4.472;2023-04-30T15:07:54;20.90;51.20
23715;DHT22;12036;50.858;4.472;2023-04-30T15:10:19;21.00;51.50
23715;DHT22;12036;50.858;4.472;2023-04-30T15:12:45;21.20;52.20
23715;DHT22;12036;50.858;4.472;2023-04-30T15:15:11;21.50;50.40
23715;DHT22;12036;50.858;4.472;2023-04-30T15:17:37;21.50;50.60
23715;DHT22;12036;50.858;4.472;2023-04-30T15:20:03;21.60;50.70
23715;DHT22;12036;50.858;4.472;2023-04-30T15:22:29;21.70;49.80
23715;DHT22;12036;50.858;4.472;2023-04-30T15:24:55;21.60;49.80
23715;DHT22;12036;50.858;4.472;2023-04-30T15:27:22;21.50;49.80
23715;DHT22;12036;50.858;4.472;2023-04-30T15:29:48;21.30;50.40
23715;DHT22;12036;50.858;4.472;2023-04-30T15:32:13;21.30;50.70
23715;DHT22;12036;50.858;4.472;2023-04-30T15:34:39;21.20;50.80
23715;DHT22;12036;50.858;4.472;2023-04-30T15:37:05;21.30;50.90
23715;DHT22;12036;50.858;4.472;2023-04-30T15:39:31;21.30;50.80
23715;DHT22;12036;50.858;4.472;2023-04-30T15:41:56;21.40;50.30
23715;DHT22;12036;50.858;4.472;2023-04-30T15:44:22;21.60;50.90
23715;DHT22;12036;50.858;4.472;2023-04-30T15:46:48;21.40;50.20
23715;DHT22;12036;50.858;4.472;2023-04-30T15:49:14;21.50;50.30
23715;DHT22;12036;50.858;4.472;2023-04-30T15:51:40;21.50;50.60
23715;DHT22;12036;50.858;4.472;2023-04-30T15:54:06;21.40;50.10
23715;DHT22;12036;50.858;4.472;2023-04-30T15:56:35;21.20;50.70
23715;DHT22;12036;50.858;4.472;2023-04-30T15:59:00;21.00;50.40
23715;DHT22;12036;50.858;4.472;2023-04-30T16:01:26;21.00;50.70
23715;DHT22;12036;50.858;4.472;2023-04-30T16:03:53;21.00;50.60